createdAt,value
2022-12-24T00:00:01.497Z,7.7
2022-12-24T00:01:01.100Z,7.7
2022-12-24T00:02:01.110Z,7.7
2022-12-24T00:03:01.240Z,7.7
2022-12-24T00:04:01.036Z,7.7
2022-12-24T00:05:01.751Z,7.7
2022-12-24T00:06:01.309Z,7.6
2022-12-24T00:07:01.183Z,7.7
2022-12-24T00:08:01.513Z,7.6
2022-12-24T00:09:01.325Z,7.6
2022-12-24T00:10:02.259Z,7.6
2022-12-24T00:11:01.142Z,7.6
2022-12-24T00:12:01.060Z,7.6
2022-12-24T00:13:01.332Z,7.6
2022-12-24T00:14:01.997Z,7.6
2022-12-24T00:15:02.080Z,7.6
2022-12-24T00:16:01.601Z,7.6
2022-12-24T00:17:01.585Z,7.6
2022-12-24T00:18:01.507Z,7.6
2022-12-24T00:19:01.549Z,7.6
2022-12-24T00:20:01.251Z,7.6
2022-12-24T00:21:01.945Z,7.6
2022-12-24T00:22:01.379Z,7.6
2022-12-24T00:23:01.159Z,7.6
2022-12-24T00:24:01.163Z,7.6
2022-12-24T00:25:01.068Z,7.6
2022-12-24T00:26:01.215Z,7.6
2022-12-24T00:27:01.103Z,7.6
2022-12-24T00:28:01.099Z,7.6
2022-12-24T00:29:01.099Z,7.6
2022-12-24T00:30:01.098Z,7.6
2022-12-24T00:31:02.440Z,7.6
2022-12-24T00:32:01.109Z,7.6
2022-12-24T00:33:01.206Z,7.6
2022-12-24T00:34:01.163Z,7.7
2022-12-24T00:35:01.423Z,7.7
2022-12-24T00:36:01.126Z,7.7
2022-12-24T00:37:01.051Z,7.6
2022-12-24T00:38:01.165Z,7.6
2022-12-24T00:39:01.051Z,7.6
2022-12-24T00:40:01.058Z,7.6
2022-12-24T00:41:01.175Z,7.6
2022-12-24T00:42:01.164Z,7.6
2022-12-24T00:43:01.187Z,7.6
2022-12-24T00:44:01.903Z,7.6
2022-12-24T00:45:00.825Z,7.6
2022-12-24T00:46:00.635Z,7.6
2022-12-24T00:47:00.560Z,7.6
2022-12-24T00:48:00.281Z,7.6
2022-12-24T00:48:59.968Z,7.6
2022-12-24T00:49:59.808Z,7.6
2022-12-24T00:51:01.556Z,7.6
2022-12-24T00:52:01.518Z,7.6
2022-12-24T00:53:01.549Z,7.6
2022-12-24T00:54:02.092Z,7.6
2022-12-24T00:55:01.272Z,7.7
2022-12-24T00:56:03.281Z,7.6
2022-12-24T00:57:02.309Z,7.6
2022-12-24T00:58:01.090Z,7.7
2022-12-24T00:59:01.128Z,7.7
2022-12-24T01:00:01.070Z,7.7
2022-12-24T01:01:05.494Z,7.7
2022-12-24T01:02:01.205Z,7.7
2022-12-24T01:03:01.324Z,7.6
2022-12-24T01:04:01.212Z,7.6
2022-12-24T01:05:01.717Z,7.6
2022-12-24T01:06:07.653Z,7.6
2022-12-24T01:07:01.129Z,7.6
2022-12-24T01:08:01.150Z,7.6
2022-12-24T01:09:01.156Z,7.6
2022-12-24T01:10:00.917Z,7.6
2022-12-24T01:11:10.226Z,7.6
2022-12-24T01:12:01.267Z,7.6
2022-12-24T01:13:02.001Z,7.6
2022-12-24T01:14:01.550Z,7.6
2022-12-24T01:15:01.074Z,7.6
2022-12-24T01:16:13.530Z,7.6
2022-12-24T01:17:01.641Z,7.6
2022-12-24T01:18:01.139Z,7.6
2022-12-24T01:19:01.877Z,7.6
2022-12-24T01:20:01.922Z,7.6
2022-12-24T01:21:15.614Z,7.6
2022-12-24T01:22:01.418Z,7.6
2022-12-24T01:23:01.374Z,7.6
2022-12-24T01:24:02.147Z,7.6
2022-12-24T01:25:01.151Z,7.6
2022-12-24T01:26:01.168Z,7.6
2022-12-24T01:27:01.160Z,7.6
2022-12-24T01:28:01.153Z,7.6
2022-12-24T01:29:01.159Z,7.7
2022-12-24T01:30:01.246Z,7.7
2022-12-24T01:31:01.124Z,7.6
2022-12-24T01:32:01.284Z,7.6
2022-12-24T01:33:01.317Z,7.6
2022-12-24T01:34:01.469Z,7.7
2022-12-24T01:35:02.183Z,7.6
2022-12-24T01:36:01.119Z,7.7
2022-12-24T01:37:01.076Z,7.7
2022-12-24T01:38:01.133Z,7.7
2022-12-24T01:39:01.856Z,7.6
2022-12-24T01:40:01.129Z,7.6
2022-12-24T01:41:01.257Z,7.6
2022-12-24T01:42:01.550Z,7.7
2022-12-24T01:43:02.168Z,7.7
2022-12-24T01:44:02.214Z,7.7
2022-12-24T01:45:01.156Z,7.7
2022-12-24T01:46:01.116Z,7.7
2022-12-24T01:47:01.074Z,7.7
2022-12-24T01:48:01.091Z,7.7
2022-12-24T01:49:01.088Z,7.7
2022-12-24T01:50:01.473Z,7.7
2022-12-24T01:51:01.094Z,7.8
2022-12-24T01:52:01.104Z,7.7
2022-12-24T01:53:01.115Z,7.7
2022-12-24T01:54:01.886Z,7.8
2022-12-24T01:55:01.068Z,7.8
2022-12-24T01:56:01.134Z,7.8
2022-12-24T01:57:01.192Z,7.8
2022-12-24T01:58:01.763Z,7.8
2022-12-24T01:59:01.564Z,7.8
2022-12-24T02:00:02.384Z,7.8
2022-12-24T02:01:01.477Z,7.8
2022-12-24T02:02:01.331Z,7.8
2022-12-24T02:03:01.322Z,7.8
2022-12-24T02:04:01.117Z,7.8
2022-12-24T02:05:01.102Z,7.8
2022-12-24T02:06:01.100Z,7.8
2022-12-24T02:07:01.321Z,7.8
2022-12-24T02:08:01.385Z,7.8
2022-12-24T02:09:01.480Z,7.8
2022-12-24T02:10:01.148Z,7.8
2022-12-24T02:11:03.967Z,7.8
2022-12-24T02:12:01.175Z,7.8
2022-12-24T02:13:01.153Z,7.8
2022-12-24T02:14:01.142Z,7.8
2022-12-24T02:15:01.170Z,7.8
2022-12-24T02:16:01.216Z,7.8
2022-12-24T02:17:04.108Z,7.8
2022-12-24T02:18:02.228Z,7.8
2022-12-24T02:19:01.326Z,7.8
2022-12-24T02:20:02.215Z,7.8
2022-12-24T02:21:01.220Z,7.8
2022-12-24T02:22:01.173Z,7.8
2022-12-24T02:23:01.132Z,7.8
2022-12-24T02:24:01.865Z,7.8
2022-12-24T02:25:01.549Z,7.8
2022-12-24T02:26:00.728Z,7.8
2022-12-24T02:27:00.418Z,7.8
2022-12-24T02:28:00.108Z,7.8
2022-12-24T02:28:59.703Z,7.8
2022-12-24T02:30:01.421Z,7.8
2022-12-24T02:31:01.276Z,7.9
2022-12-24T02:32:01.169Z,7.8
2022-12-24T02:33:01.964Z,7.8
2022-12-24T02:34:01.492Z,7.9
2022-12-24T02:35:02.067Z,7.9
2022-12-24T02:36:01.181Z,7.9
2022-12-24T02:37:01.209Z,7.9
2022-12-24T02:38:01.205Z,7.9
2022-12-24T02:39:01.254Z,7.9
2022-12-24T02:40:01.356Z,7.9
2022-12-24T02:41:01.951Z,7.9
2022-12-24T02:42:02.727Z,7.9
2022-12-24T02:43:01.225Z,7.9
2022-12-24T02:44:00.919Z,7.9
2022-12-24T02:45:01.168Z,7.9
2022-12-24T02:46:00.655Z,7.9
2022-12-24T02:47:04.948Z,7.9
2022-12-24T02:48:01.328Z,7.9
2022-12-24T02:49:01.575Z,7.9
2022-12-24T02:50:01.563Z,7.9
2022-12-24T02:51:01.265Z,7.9
2022-12-24T02:52:08.902Z,7.9
2022-12-24T02:53:01.954Z,7.9
2022-12-24T02:54:01.138Z,7.9
2022-12-24T02:55:01.111Z,7.9
2022-12-24T02:56:01.116Z,8
2022-12-24T02:57:10.609Z,7.9
2022-12-24T02:58:01.501Z,7.9
2022-12-24T02:59:01.179Z,7.9
2022-12-24T03:00:01.126Z,7.9
2022-12-24T03:01:01.215Z,7.9
2022-12-24T03:02:14.068Z,7.9
2022-12-24T03:03:01.296Z,7.9
2022-12-24T03:04:01.102Z,7.9
2022-12-24T03:05:01.203Z,7.9
2022-12-24T03:06:01.176Z,7.9
2022-12-24T03:07:16.098Z,7.9
2022-12-24T03:08:01.581Z,8
2022-12-24T03:09:03.870Z,8
2022-12-24T03:10:04.656Z,8
2022-12-24T03:11:01.810Z,8
2022-12-24T03:12:01.708Z,8
2022-12-24T03:13:01.829Z,8
2022-12-24T03:14:01.265Z,8
2022-12-24T03:15:01.195Z,8
2022-12-24T03:16:01.957Z,8.1
2022-12-24T03:17:01.072Z,8.1
2022-12-24T03:18:01.277Z,8.1
2022-12-24T03:19:02.119Z,8.1
2022-12-24T03:20:03.272Z,8.1
2022-12-24T03:21:01.181Z,8.1
2022-12-24T03:22:01.188Z,8.1
2022-12-24T03:23:01.114Z,8.1
2022-12-24T03:24:01.625Z,8.1
2022-12-24T03:25:01.747Z,8.1
2022-12-24T03:26:00.939Z,8.1
2022-12-24T03:27:00.934Z,8.1
2022-12-24T03:28:01.079Z,8.1
2022-12-24T03:29:01.192Z,8.1
2022-12-24T03:30:01.166Z,8.1
2022-12-24T03:31:01.133Z,8.1
2022-12-24T03:32:01.277Z,8.1
2022-12-24T03:33:01.111Z,8.1
2022-12-24T03:34:01.846Z,8.1
2022-12-24T03:35:01.138Z,8.1
2022-12-24T03:36:01.159Z,8.1
2022-12-24T03:37:01.152Z,8.1
2022-12-24T03:38:01.150Z,8.1
2022-12-24T03:39:01.174Z,8.1
2022-12-24T03:40:01.075Z,8.1
2022-12-24T03:41:01.457Z,8.1
2022-12-24T03:42:01.202Z,8.1
2022-12-24T03:43:01.109Z,8.1
2022-12-24T03:44:01.077Z,8.1
2022-12-24T03:45:01.096Z,8.1
2022-12-24T03:46:01.171Z,8.1
2022-12-24T03:47:01.109Z,8.1
2022-12-24T03:48:01.302Z,8.1
2022-12-24T03:49:01.193Z,8.1
2022-12-24T03:50:01.159Z,8.1
2022-12-24T03:51:01.891Z,8.1
2022-12-24T03:52:01.948Z,8.1
2022-12-24T03:53:01.148Z,8.1
2022-12-24T03:54:02.082Z,8.1
2022-12-24T03:55:01.153Z,8.1
2022-12-24T03:56:01.057Z,8.1
2022-12-24T03:57:01.103Z,8.1
2022-12-24T03:58:01.074Z,8.1
2022-12-24T03:59:01.101Z,8.1
2022-12-24T04:00:01.081Z,8.1
2022-12-24T04:01:01.061Z,8.1
2022-12-24T04:02:01.340Z,8.1
2022-12-24T04:03:01.603Z,8.1
2022-12-24T04:04:01.082Z,8.1
2022-12-24T04:05:01.092Z,8.1
2022-12-24T04:06:01.133Z,8.1
2022-12-24T04:07:01.135Z,8.1
2022-12-24T04:08:01.047Z,8.1
2022-12-24T04:09:01.152Z,8.1
2022-12-24T04:10:01.473Z,8.1
2022-12-24T04:11:07.801Z,8.1
2022-12-24T04:12:01.195Z,8.1
2022-12-24T04:13:01.097Z,8.1
2022-12-24T04:14:01.041Z,8.1
2022-12-24T04:15:01.112Z,8.1
2022-12-24T04:16:01.143Z,8.1
2022-12-24T04:17:01.190Z,8
2022-12-24T04:18:01.100Z,8.1
2022-12-24T04:19:01.445Z,8
2022-12-24T04:20:02.280Z,8.1
2022-12-24T04:21:01.146Z,8
2022-12-24T04:22:01.120Z,8
2022-12-24T04:23:04.008Z,8
2022-12-24T04:24:01.120Z,8
2022-12-24T04:25:01.147Z,8
2022-12-24T04:26:01.176Z,8
2022-12-24T04:27:01.061Z,8
2022-12-24T04:28:05.985Z,8
2022-12-24T04:29:02.914Z,8
2022-12-24T04:30:01.718Z,8
2022-12-24T04:31:01.064Z,8
2022-12-24T04:32:02.517Z,8
2022-12-24T04:33:05.999Z,8
2022-12-24T04:34:01.507Z,8
2022-12-24T04:35:01.325Z,8
2022-12-24T04:36:02.256Z,8
2022-12-24T04:37:01.205Z,8
2022-12-24T04:38:08.447Z,8
2022-12-24T04:39:01.876Z,8
2022-12-24T04:40:02.369Z,8
2022-12-24T04:41:01.159Z,8
2022-12-24T04:42:01.219Z,8
2022-12-24T04:43:11.769Z,8
2022-12-24T04:44:03.971Z,7.9
2022-12-24T04:45:01.379Z,7.9
2022-12-24T04:46:02.524Z,7.9
2022-12-24T04:47:01.080Z,7.9
2022-12-24T04:48:14.231Z,7.9
2022-12-24T04:49:01.147Z,7.9
2022-12-24T04:50:01.091Z,7.9
2022-12-24T04:51:01.816Z,7.9
2022-12-24T04:52:00.630Z,7.9
2022-12-24T04:53:00.283Z,7.9
2022-12-24T04:53:59.880Z,7.9
2022-12-24T04:54:59.585Z,7.9
2022-12-24T04:56:01.418Z,7.8
2022-12-24T04:57:01.533Z,7.8
2022-12-24T04:58:01.258Z,7.8
2022-12-24T04:59:01.889Z,7.8
2022-12-24T05:00:01.110Z,7.8
2022-12-24T05:01:01.100Z,7.8
2022-12-24T05:02:01.290Z,7.8
2022-12-24T05:03:02.077Z,7.8
2022-12-24T05:04:02.003Z,7.8
2022-12-24T05:05:01.299Z,7.8
2022-12-24T05:06:01.609Z,7.8
2022-12-24T05:07:01.123Z,7.8
2022-12-24T05:08:01.126Z,7.8
2022-12-24T05:09:01.154Z,7.8
2022-12-24T05:10:01.123Z,7.8
2022-12-24T05:11:01.215Z,7.8
2022-12-24T05:12:02.052Z,7.8
2022-12-24T05:13:01.138Z,7.8
2022-12-24T05:14:01.159Z,7.8
2022-12-24T05:15:01.566Z,7.8
2022-12-24T05:16:01.233Z,7.8
2022-12-24T05:17:01.125Z,7.8
2022-12-24T05:18:01.074Z,7.8
2022-12-24T05:19:01.223Z,7.8
2022-12-24T05:20:01.179Z,7.8
2022-12-24T05:21:01.860Z,7.8
2022-12-24T05:22:01.132Z,7.8
2022-12-24T05:23:01.280Z,7.8
2022-12-24T05:24:01.211Z,7.8
2022-12-24T05:25:01.981Z,7.8
2022-12-24T05:26:01.133Z,7.8
2022-12-24T05:27:01.131Z,7.7
2022-12-24T05:28:01.141Z,7.8
2022-12-24T05:29:00.956Z,7.7
2022-12-24T05:30:01.158Z,7.7
2022-12-24T05:31:01.195Z,7.7
2022-12-24T05:32:01.529Z,7.7
2022-12-24T05:33:01.455Z,7.7
2022-12-24T05:34:01.093Z,7.7
2022-12-24T05:35:01.781Z,7.7
2022-12-24T05:36:01.076Z,7.7
2022-12-24T05:37:01.102Z,7.7
2022-12-24T05:38:01.304Z,7.7
2022-12-24T05:39:01.106Z,7.7
2022-12-24T05:40:01.142Z,7.7
2022-12-24T05:41:01.533Z,7.7
2022-12-24T05:42:02.030Z,7.6
2022-12-24T05:43:02.967Z,7.6
2022-12-24T05:44:00.709Z,7.6
2022-12-24T05:45:01.040Z,7.6
2022-12-24T05:46:01.595Z,7.6
2022-12-24T05:47:01.953Z,7.6
2022-12-24T05:48:01.548Z,7.6
2022-12-24T05:49:01.076Z,7.6
2022-12-24T05:50:00.676Z,7.6
2022-12-24T05:51:00.300Z,7.6
2022-12-24T05:51:59.939Z,7.6
2022-12-24T05:52:59.532Z,7.6
2022-12-24T05:54:01.933Z,7.6
2022-12-24T05:55:02.546Z,7.6
2022-12-24T05:56:01.215Z,7.6
2022-12-24T05:57:01.111Z,7.6
2022-12-24T05:58:01.139Z,7.6
2022-12-24T05:59:01.177Z,7.6
2022-12-24T06:00:01.170Z,7.6
2022-12-24T06:01:01.152Z,7.6
2022-12-24T06:02:01.374Z,7.6
2022-12-24T06:03:01.320Z,7.6
2022-12-24T06:04:01.382Z,7.6
2022-12-24T06:05:01.313Z,7.6
2022-12-24T06:06:01.970Z,7.6
2022-12-24T06:07:01.762Z,7.5
2022-12-24T06:08:01.100Z,7.5
2022-12-24T06:09:04.251Z,7.5
2022-12-24T06:10:01.109Z,7.5
2022-12-24T06:11:01.806Z,7.5
2022-12-24T06:12:01.383Z,7.5
2022-12-24T06:13:01.118Z,7.5
2022-12-24T06:14:05.685Z,7.6
2022-12-24T06:15:01.362Z,7.5
2022-12-24T06:16:01.653Z,7.5
2022-12-24T06:17:01.875Z,7.5
2022-12-24T06:18:01.155Z,7.5
2022-12-24T06:19:08.514Z,7.5
2022-12-24T06:20:01.237Z,7.5
2022-12-24T06:21:01.214Z,7.5
2022-12-24T06:22:01.087Z,7.5
2022-12-24T06:23:01.118Z,7.5
2022-12-24T06:24:10.495Z,7.5
2022-12-24T06:25:02.179Z,7.5
2022-12-24T06:26:02.306Z,7.5
2022-12-24T06:27:03.160Z,7.5
2022-12-24T06:28:02.118Z,7.5
2022-12-24T06:29:14.271Z,7.5
2022-12-24T06:30:00.673Z,7.5
2022-12-24T06:31:03.205Z,7.5
2022-12-24T06:32:01.584Z,7.5
2022-12-24T06:33:01.160Z,7.5
2022-12-24T06:34:16.213Z,7.5
2022-12-24T06:35:01.154Z,7.5
2022-12-24T06:36:01.795Z,7.5
2022-12-24T06:37:01.092Z,7.5
2022-12-24T06:38:04.464Z,7.5
2022-12-24T06:39:01.068Z,7.5
2022-12-24T06:40:01.275Z,7.5
2022-12-24T06:41:01.393Z,7.5
2022-12-24T06:42:02.166Z,7.5
2022-12-24T06:43:02.163Z,7.5
2022-12-24T06:44:01.125Z,7.5
2022-12-24T06:45:07.779Z,7.5
2022-12-24T06:46:01.869Z,7.5
2022-12-24T06:47:01.274Z,7.5
2022-12-24T06:48:01.145Z,7.5
2022-12-24T06:49:01.140Z,7.5
2022-12-24T06:50:01.150Z,7.4
2022-12-24T06:51:01.155Z,7.5
2022-12-24T06:52:00.854Z,7.5
2022-12-24T06:53:01.161Z,7.5
2022-12-24T06:54:01.225Z,7.5
2022-12-24T06:55:01.087Z,7.4
2022-12-24T06:56:01.079Z,7.4
2022-12-24T06:57:01.124Z,7.5
2022-12-24T06:58:01.096Z,7.5
2022-12-24T06:59:05.282Z,7.5
2022-12-24T07:00:00.720Z,7.5
2022-12-24T07:01:00.376Z,7.4
2022-12-24T07:02:00.106Z,7.5
2022-12-24T07:02:59.906Z,7.5
2022-12-24T07:03:59.720Z,7.5
2022-12-24T07:05:01.720Z,7.5
2022-12-24T07:06:01.119Z,7.5
2022-12-24T07:07:00.718Z,7.4
2022-12-24T07:08:00.323Z,7.4
2022-12-24T07:08:59.917Z,7.5
2022-12-24T07:09:59.525Z,7.4
2022-12-24T07:11:01.122Z,7.4
2022-12-24T07:12:00.976Z,7.5
2022-12-24T07:13:01.086Z,7.4
2022-12-24T07:14:01.112Z,7.5
2022-12-24T07:15:01.228Z,7.4
2022-12-24T07:16:01.528Z,7.4
2022-12-24T07:17:01.659Z,7.4
2022-12-24T07:18:01.122Z,7.5
2022-12-24T07:19:01.259Z,7.5
2022-12-24T07:20:01.153Z,7.4
2022-12-24T07:21:01.131Z,7.4
2022-12-24T07:22:01.147Z,7.4
2022-12-24T07:23:01.149Z,7.4
2022-12-24T07:24:01.157Z,7.4
2022-12-24T07:25:01.196Z,7.4
2022-12-24T07:26:01.090Z,7.5
2022-12-24T07:27:01.095Z,7.5
2022-12-24T07:28:01.196Z,7.4
2022-12-24T07:29:01.858Z,7.5
2022-12-24T07:30:02.814Z,7.4
2022-12-24T07:31:02.273Z,7.5
2022-12-24T07:32:00.842Z,7.5
2022-12-24T07:33:01.066Z,7.4
2022-12-24T07:34:01.105Z,7.4
2022-12-24T07:35:01.051Z,7.5
2022-12-24T07:36:00.897Z,7.5
2022-12-24T07:37:01.554Z,7.4
2022-12-24T07:38:02.203Z,7.5
2022-12-24T07:39:02.818Z,7.4
2022-12-24T07:40:01.083Z,7.4
2022-12-24T07:41:01.168Z,7.5
2022-12-24T07:42:01.800Z,7.4
2022-12-24T07:43:01.894Z,7.4
2022-12-24T07:44:01.760Z,7.5
2022-12-24T07:45:01.203Z,7.5
2022-12-24T07:46:02.438Z,7.5
2022-12-24T07:47:01.544Z,7.5
2022-12-24T07:48:02.216Z,7.4
2022-12-24T07:49:01.991Z,7.4
2022-12-24T07:50:01.145Z,7.4
2022-12-24T07:51:01.105Z,7.4
2022-12-24T07:52:00.806Z,7.4
2022-12-24T07:53:00.395Z,7.4
2022-12-24T07:54:00.117Z,7.4
2022-12-24T07:55:01.886Z,7.5
2022-12-24T07:56:00.832Z,7.4
2022-12-24T07:57:00.534Z,7.4
2022-12-24T07:58:00.241Z,7.4
2022-12-24T07:58:59.910Z,7.4
2022-12-24T08:00:04.151Z,7.4
2022-12-24T08:01:00.665Z,7.4
2022-12-24T08:02:00.963Z,7.4
2022-12-24T08:03:01.325Z,7.4
2022-12-24T08:04:01.142Z,7.4
2022-12-24T08:05:05.616Z,7.4
2022-12-24T08:06:01.224Z,7.4
2022-12-24T08:07:01.234Z,7.4
2022-12-24T08:08:01.523Z,7.5
2022-12-24T08:09:01.339Z,7.5
2022-12-24T08:10:07.830Z,7.5
2022-12-24T08:11:01.198Z,7.5
2022-12-24T08:12:00.950Z,7.5
2022-12-24T08:13:01.087Z,7.5
2022-12-24T08:14:01.178Z,7.5
2022-12-24T08:15:11.209Z,7.5
2022-12-24T08:16:02.049Z,7.5
2022-12-24T08:17:02.114Z,7.5
2022-12-24T08:18:01.392Z,7.5
2022-12-24T08:19:01.113Z,7.5
2022-12-24T08:20:13.466Z,7.5
2022-12-24T08:21:01.101Z,7.5
2022-12-24T08:22:01.154Z,7.5
2022-12-24T08:23:01.101Z,7.5
2022-12-24T08:24:01.066Z,7.5
2022-12-24T08:25:15.555Z,7.5
2022-12-24T08:26:01.527Z,7.5
2022-12-24T08:27:01.161Z,7.5
2022-12-24T08:28:01.142Z,7.5
2022-12-24T08:29:01.136Z,7.5
2022-12-24T08:30:01.165Z,7.5
2022-12-24T08:31:01.162Z,7.5
2022-12-24T08:32:00.794Z,7.5
2022-12-24T08:33:01.368Z,7.5
2022-12-24T08:34:02.608Z,7.6
2022-12-24T08:35:02.029Z,7.6
2022-12-24T08:36:01.468Z,7.6
2022-12-24T08:37:01.101Z,7.6
2022-12-24T08:38:01.099Z,7.6
2022-12-24T08:39:01.206Z,7.6
2022-12-24T08:40:01.141Z,7.6
2022-12-24T08:41:01.117Z,7.6
2022-12-24T08:42:01.194Z,7.6
2022-12-24T08:43:01.196Z,7.6
2022-12-24T08:44:01.274Z,7.6
2022-12-24T08:45:01.541Z,7.6
2022-12-24T08:46:01.198Z,7.7
2022-12-24T08:47:01.072Z,7.7
2022-12-24T08:48:01.178Z,7.7
2022-12-24T08:49:01.085Z,7.7
2022-12-24T08:50:01.077Z,7.7
2022-12-24T08:51:01.099Z,7.8
2022-12-24T08:52:00.799Z,7.8
2022-12-24T08:53:01.110Z,7.8
2022-12-24T08:54:01.216Z,7.8
2022-12-24T08:55:01.144Z,7.8
2022-12-24T08:56:01.087Z,7.8
2022-12-24T08:57:01.054Z,7.8
2022-12-24T08:58:01.134Z,7.8
2022-12-24T08:59:01.739Z,7.8
2022-12-24T09:00:01.979Z,7.8
2022-12-24T09:01:01.488Z,7.9
2022-12-24T09:02:01.372Z,7.9
2022-12-24T09:03:01.273Z,7.9
2022-12-24T09:04:01.188Z,8
2022-12-24T09:05:01.875Z,8
2022-12-24T09:06:01.563Z,8
2022-12-24T09:07:01.079Z,8
2022-12-24T09:08:01.125Z,8
2022-12-24T09:09:01.102Z,8
2022-12-24T09:10:01.094Z,8.1
2022-12-24T09:11:01.239Z,8.1
2022-12-24T09:12:01.196Z,8.1
2022-12-24T09:13:01.500Z,8.1
2022-12-24T09:14:01.524Z,8.2
2022-12-24T09:15:03.709Z,8.2
2022-12-24T09:16:01.142Z,8.2
2022-12-24T09:17:01.285Z,8.3
2022-12-24T09:18:01.143Z,8.3
2022-12-24T09:19:01.276Z,8.3
2022-12-24T09:20:01.097Z,8.3
2022-12-24T09:21:01.484Z,8.3
2022-12-24T09:22:01.935Z,8.4
2022-12-24T09:23:01.133Z,8.4
2022-12-24T09:24:01.119Z,8.5
2022-12-24T09:25:01.092Z,8.5
2022-12-24T09:26:01.139Z,8.5
2022-12-24T09:27:01.112Z,8.5
2022-12-24T09:28:01.445Z,8.5
2022-12-24T09:29:01.135Z,8.5
2022-12-24T09:30:01.171Z,8.5
2022-12-24T09:31:01.133Z,8.5
2022-12-24T09:32:02.007Z,8.5
2022-12-24T09:33:01.160Z,8.5
2022-12-24T09:34:01.139Z,8.5
2022-12-24T09:35:01.467Z,8.5
2022-12-24T09:36:01.084Z,8.5
2022-12-24T09:37:01.090Z,8.5
2022-12-24T09:38:01.078Z,8.5
2022-12-24T09:39:01.797Z,8.5
2022-12-24T09:40:02.186Z,8.5
2022-12-24T09:41:07.061Z,8.6
2022-12-24T09:42:01.406Z,8.6
2022-12-24T09:43:01.418Z,8.6
2022-12-24T09:44:01.106Z,8.6
2022-12-24T09:45:01.173Z,8.6
2022-12-24T09:46:01.193Z,8.6
2022-12-24T09:47:04.141Z,8.6
2022-12-24T09:48:01.160Z,8.6
2022-12-24T09:49:01.146Z,8.6
2022-12-24T09:50:01.533Z,8.6
2022-12-24T09:51:02.691Z,8.6
2022-12-24T09:52:01.252Z,8.6
2022-12-24T09:53:02.035Z,8.6
2022-12-24T09:54:02.095Z,8.6
2022-12-24T09:55:01.107Z,8.7
2022-12-24T09:56:05.594Z,8.7
2022-12-24T09:57:01.219Z,8.7
2022-12-24T09:58:01.213Z,8.7
2022-12-24T09:59:01.491Z,8.7
2022-12-24T10:00:03.986Z,8.8
2022-12-24T10:01:08.572Z,8.8
2022-12-24T10:02:01.498Z,8.8
2022-12-24T10:03:01.205Z,8.8
2022-12-24T10:04:01.136Z,8.8
2022-12-24T10:05:01.179Z,8.8
2022-12-24T10:06:11.359Z,8.8
2022-12-24T10:07:02.214Z,8.8
2022-12-24T10:08:01.372Z,8.8
2022-12-24T10:09:01.360Z,8.8
2022-12-24T10:10:01.979Z,8.8
2022-12-24T10:11:14.701Z,8.8
2022-12-24T10:12:00.579Z,8.9
2022-12-24T10:13:00.215Z,8.9
2022-12-24T10:13:59.865Z,8.9
2022-12-24T10:15:01.553Z,9
2022-12-24T10:16:01.172Z,9
2022-12-24T10:17:01.201Z,9
2022-12-24T10:18:01.117Z,9
2022-12-24T10:19:01.150Z,9
2022-12-24T10:20:01.125Z,9
2022-12-24T10:21:02.046Z,9
2022-12-24T10:22:01.721Z,9
2022-12-24T10:23:01.072Z,9
2022-12-24T10:24:01.163Z,9
2022-12-24T10:25:01.055Z,9
2022-12-24T10:26:01.190Z,9
2022-12-24T10:27:01.079Z,9
2022-12-24T10:28:01.333Z,9
2022-12-24T10:29:01.466Z,9
2022-12-24T10:30:01.936Z,9
2022-12-24T10:31:01.579Z,9
2022-12-24T10:32:01.309Z,9
2022-12-24T10:33:02.113Z,9
2022-12-24T10:34:01.098Z,9
2022-12-24T10:35:01.325Z,9
2022-12-24T10:36:05.368Z,9
2022-12-24T10:37:01.153Z,9
2022-12-24T10:38:01.177Z,9
2022-12-24T10:39:01.161Z,9
2022-12-24T10:40:01.299Z,9
2022-12-24T10:41:00.949Z,9
2022-12-24T10:42:01.077Z,9
2022-12-24T10:43:01.106Z,9.1
2022-12-24T10:44:01.099Z,9.1
2022-12-24T10:45:01.105Z,9.1
2022-12-24T10:46:01.188Z,9.1
2022-12-24T10:47:01.869Z,9.1
2022-12-24T10:48:01.531Z,9.1
2022-12-24T10:49:01.736Z,9.1
2022-12-24T10:50:01.143Z,9.1
2022-12-24T10:51:01.208Z,9.1
2022-12-24T10:52:00.875Z,9.1
2022-12-24T10:53:00.528Z,9.1
2022-12-24T10:54:00.121Z,9.2
2022-12-24T10:54:59.800Z,9.2
2022-12-24T10:56:01.400Z,9.2
2022-12-24T10:57:01.061Z,9.2
2022-12-24T10:58:01.179Z,9.3
2022-12-24T10:59:01.081Z,9.3
2022-12-24T11:00:01.082Z,9.3
2022-12-24T11:01:01.114Z,9.3
2022-12-24T11:02:01.619Z,9.3
2022-12-24T11:03:01.421Z,9.3
2022-12-24T11:04:01.669Z,9.3
2022-12-24T11:05:01.185Z,9.3
2022-12-24T11:06:01.130Z,9.3
2022-12-24T11:07:01.119Z,9.3
2022-12-24T11:08:01.152Z,9.3
2022-12-24T11:09:01.065Z,9.4
2022-12-24T11:10:01.164Z,9.4
2022-12-24T11:11:01.181Z,9.4
2022-12-24T11:12:06.921Z,9.4
2022-12-24T11:13:35.616Z,9.5
2022-12-24T11:14:01.104Z,9.5
2022-12-24T11:15:01.170Z,9.5
2022-12-24T11:16:01.122Z,9.5
2022-12-24T11:17:01.297Z,9.5
2022-12-24T11:18:02.001Z,9.5
2022-12-24T11:19:02.533Z,9.5
2022-12-24T11:20:01.121Z,9.5
2022-12-24T11:21:01.191Z,9.5
2022-12-24T11:22:01.131Z,9.5
2022-12-24T11:23:01.144Z,9.5
2022-12-24T11:24:01.049Z,9.5
2022-12-24T11:25:01.131Z,9.5
2022-12-24T11:26:01.151Z,9.5
2022-12-24T11:27:01.543Z,9.5
2022-12-24T11:28:01.152Z,9.5
2022-12-24T11:29:01.174Z,9.5
2022-12-24T11:30:03.038Z,9.5
2022-12-24T11:31:03.064Z,9.5
2022-12-24T11:32:01.379Z,9.5
2022-12-24T11:33:01.111Z,9.5
2022-12-24T11:34:01.492Z,9.5
2022-12-24T11:35:01.116Z,9.6
2022-12-24T11:36:01.854Z,9.6
2022-12-24T11:37:05.203Z,9.6
2022-12-24T11:38:01.882Z,9.6
2022-12-24T11:39:01.147Z,9.6
2022-12-24T11:40:00.634Z,9.6
2022-12-24T11:41:00.319Z,9.6
2022-12-24T11:42:06.355Z,9.6
2022-12-24T11:43:01.151Z,9.6
2022-12-24T11:44:01.186Z,9.6
2022-12-24T11:45:01.171Z,9.6
2022-12-24T11:46:01.286Z,9.6
2022-12-24T11:47:09.409Z,9.6
2022-12-24T11:48:02.446Z,9.5
2022-12-24T11:49:07.522Z,9.5
2022-12-24T11:50:17.748Z,9.5
2022-12-24T11:51:01.166Z,9.5
2022-12-24T11:52:13.668Z,9.5
2022-12-24T11:53:01.121Z,9.5
2022-12-24T11:54:00.590Z,9.5
2022-12-24T11:55:00.237Z,9.5
2022-12-24T11:56:00.304Z,9.5
2022-12-24T11:57:15.538Z,9.5
2022-12-24T11:58:01.505Z,9.5
2022-12-24T11:59:01.165Z,9.5
2022-12-24T12:00:01.156Z,9.5
2022-12-24T12:01:01.152Z,9.5
2022-12-24T12:02:01.173Z,9.5
2022-12-24T12:03:01.199Z,9.5
2022-12-24T12:04:01.907Z,9.5
2022-12-24T12:05:01.138Z,9.5
2022-12-24T12:06:01.452Z,9.6
2022-12-24T12:07:01.173Z,9.6
2022-12-24T12:08:01.124Z,9.6
2022-12-24T12:09:01.048Z,9.6
2022-12-24T12:10:01.055Z,9.6
2022-12-24T12:11:01.104Z,9.6
2022-12-24T12:12:01.177Z,9.7
2022-12-24T12:13:01.225Z,9.7
2022-12-24T12:14:01.088Z,9.7
2022-12-24T12:15:01.558Z,9.8
2022-12-24T12:16:01.178Z,9.8
2022-12-24T12:17:00.811Z,9.8
2022-12-24T12:18:00.484Z,9.8
2022-12-24T12:19:00.147Z,9.8
2022-12-24T12:19:59.833Z,9.8
2022-12-24T12:21:01.781Z,9.8
2022-12-24T12:22:01.082Z,9.8
2022-12-24T12:23:01.292Z,9.8
2022-12-24T12:24:01.501Z,9.8
2022-12-24T12:25:01.157Z,9.8
2022-12-24T12:26:01.102Z,9.8
2022-12-24T12:27:01.121Z,9.8
2022-12-24T12:28:01.108Z,9.8
2022-12-24T12:29:02.210Z,9.8
2022-12-24T12:30:01.173Z,9.8
2022-12-24T12:31:01.204Z,9.8
2022-12-24T12:32:01.136Z,9.8
2022-12-24T12:33:04.040Z,9.8
2022-12-24T12:34:00.985Z,9.8
2022-12-24T12:35:01.079Z,9.8
2022-12-24T12:36:01.070Z,9.8
2022-12-24T12:37:01.090Z,9.8
2022-12-24T12:38:01.089Z,9.8
2022-12-24T12:39:01.807Z,9.8
2022-12-24T12:40:01.815Z,9.8
2022-12-24T12:41:01.796Z,9.8
2022-12-24T12:42:01.130Z,9.8
2022-12-24T12:43:01.489Z,9.8
2022-12-24T12:44:01.140Z,9.8
2022-12-24T12:45:01.128Z,9.8
2022-12-24T12:46:01.131Z,9.8
2022-12-24T12:47:01.222Z,9.7
2022-12-24T12:48:01.067Z,9.7
2022-12-24T12:49:03.151Z,9.8
2022-12-24T12:50:01.185Z,9.7
2022-12-24T12:51:01.564Z,9.8
2022-12-24T12:52:01.463Z,9.8
2022-12-24T12:53:01.097Z,9.8
2022-12-24T12:54:00.774Z,9.8
2022-12-24T12:55:00.467Z,9.8
2022-12-24T12:56:00.102Z,9.8
2022-12-24T12:56:59.771Z,9.8
2022-12-24T12:58:01.345Z,9.7
2022-12-24T12:59:01.312Z,9.8
2022-12-24T13:00:01.520Z,9.7
2022-12-24T13:01:02.332Z,9.8
2022-12-24T13:02:01.451Z,9.7
2022-12-24T13:03:01.383Z,9.8
2022-12-24T13:04:02.848Z,9.8
2022-12-24T13:05:02.384Z,9.8
2022-12-24T13:05:59.809Z,9.8
2022-12-24T13:07:02.512Z,9.8
2022-12-24T13:08:01.456Z,9.8
2022-12-24T13:09:01.062Z,9.8
2022-12-24T13:10:01.090Z,9.8
2022-12-24T13:11:01.141Z,9.8
2022-12-24T13:12:01.097Z,9.7
2022-12-24T13:13:01.119Z,9.8
2022-12-24T13:14:00.782Z,9.7
2022-12-24T13:15:00.385Z,9.8
2022-12-24T13:16:00.380Z,9.8
2022-12-24T13:17:00.153Z,9.8
2022-12-24T13:18:01.987Z,9.8
2022-12-24T13:19:01.162Z,9.7
2022-12-24T13:20:01.152Z,9.7
2022-12-24T13:21:01.147Z,9.8
2022-12-24T13:22:01.166Z,9.7
2022-12-24T13:23:01.819Z,9.7
2022-12-24T13:24:01.889Z,9.7
2022-12-24T13:25:01.439Z,9.7
2022-12-24T13:26:01.050Z,9.7
2022-12-24T13:27:01.110Z,9.7
2022-12-24T13:28:05.790Z,9.7
2022-12-24T13:29:01.414Z,9.7
2022-12-24T13:30:09.293Z,9.7
2022-12-24T13:31:01.080Z,9.7
2022-12-24T13:32:01.234Z,9.7
2022-12-24T13:33:08.505Z,9.7
2022-12-24T13:34:01.139Z,9.7
2022-12-24T13:35:01.131Z,9.7
2022-12-24T13:36:01.216Z,9.7
2022-12-24T13:37:01.965Z,9.7
2022-12-24T13:38:10.904Z,9.7
2022-12-24T13:39:01.553Z,9.7
2022-12-24T13:40:01.195Z,9.7
2022-12-24T13:41:02.155Z,9.7
2022-12-24T13:42:01.089Z,9.7
2022-12-24T13:43:14.239Z,9.7
2022-12-24T13:44:01.088Z,9.6
2022-12-24T13:45:01.091Z,9.7
2022-12-24T13:46:01.223Z,9.7
2022-12-24T13:47:01.184Z,9.6
2022-12-24T13:48:16.676Z,9.7
2022-12-24T13:49:01.128Z,9.7
2022-12-24T13:50:01.123Z,9.7